sensor_id;sensor_type;location;lat;lon;timestamp;pressure;altitude;pressure_sealevel;temperature;humidity
70555;BME280;58104;52.744;15.242;2024-03-08T00:01:48;101736.48;;;17.21;44.86
70555;BME280;58104;52.744;15.242;2024-03-08T00:04:14;101734.11;;;17.18;44.58
70555;BME280;58104;52.744;15.242;2024-03-08T00:06:40;101736.98;;;17.16;44.23
70555;BME280;58104;52.744;15.242;2024-03-08T00:09:05;101736.21;;;17.18;44.53
70555;BME280;58104;52.744;15.242;2024-03-08T00:11:31;101733.26;;;17.09;44.02
70555;BME280;58104;52.744;15.242;2024-03-08T00:13:56;101731.81;;;17.13;43.71
70555;BME280;58104;52.744;15.242;2024-03-08T00:16:22;101730.80;;;17.15;44.70
70555;BME280;58104;52.744;15.242;2024-03-08T00:18:47;101732.05;;;17.14;45.59
70555;BME280;58104;52.744;15.242;2024-03-08T00:21:13;101729.47;;;17.15;45.10
70555;BME280;58104;52.744;15.242;2024-03-08T00:23:38;101732.54;;;17.04;45.82
70555;BME280;58104;52.744;15.242;2024-03-08T00:26:03;101733.18;;;17.13;44.12
70555;BME280;58104;52.744;15.242;2024-03-08T00:28:29;101733.01;;;17.01;43.83
70555;BME280;58104;52.744;15.242;2024-03-08T00:30:54;101728.69;;;17.07;44.54
70555;BME280;58104;52.744;15.242;2024-03-08T00:33:19;101730.03;;;17.04;44.47
70555;BME280;58104;52.744;15.242;2024-03-08T00:35:44;101730.26;;;17.05;44.70
70555;BME280;58104;52.744;15.242;2024-03-08T00:38:09;101729.42;;;17.03;45.33
70555;BME280;58104;52.744;15.242;2024-03-08T00:40:35;101730.61;;;17.05;44.09
70555;BME280;58104;52.744;15.242;2024-03-08T00:43:00;101728.84;;;17.06;44.66
70555;BME280;58104;52.744;15.242;2024-03-08T00:45:26;101726.33;;;17.02;45.19
70555;BME280;58104;52.744;15.242;2024-03-08T00:47:51;101724.91;;;16.97;44.79
70555;BME280;58104;52.744;15.242;2024-03-08T00:50:17;101724.64;;;16.97;45.66
70555;BME280;58104;52.744;15.242;2024-03-08T00:52:43;101722.43;;;17.03;43.76
70555;BME280;58104;52.744;15.242;2024-03-08T00:55:08;101722.70;;;16.93;45.60
70555;BME280;58104;52.744;15.242;2024-03-08T00:57:34;101720.67;;;17.03;44.89
70555;BME280;58104;52.744;15.242;2024-03-08T00:59:59;101718.96;;;16.96;44.37
70555;BME280;58104;52.744;15.242;2024-03-08T01:02:24;101719.41;;;16.96;45.22
70555;BME280;58104;52.744;15.242;2024-03-08T01:04:50;101716.29;;;16.93;45.23
70555;BME280;58104;52.744;15.242;2024-03-08T01:07:16;101710.63;;;16.93;45.42
70555;BME280;58104;52.744;15.242;2024-03-08T01:09:41;101707.10;;;16.97;44.71
70555;BME280;58104;52.744;15.242;2024-03-08T01:12:07;101704.66;;;16.86;44.03
70555;BME280;58104;52.744;15.242;2024-03-08T01:14:32;101704.31;;;16.89;45.11
70555;BME280;58104;52.744;15.242;2024-03-08T01:16:58;101703.05;;;16.88;43.81
70555;BME280;58104;52.744;15.242;2024-03-08T01:19:23;101705.11;;;16.91;43.85
70555;BME280;58104;52.744;15.242;2024-03-08T01:21:48;101702.69;;;16.96;45.73
70555;BME280;58104;52.744;15.242;2024-03-08T01:24:14;101697.70;;;16.96;45.37
70555;BME280;58104;52.744;15.242;2024-03-08T01:26:39;101694.62;;;16.92;44.36
70555;BME280;58104;52.744;15.242;2024-03-08T01:29:05;101695.24;;;16.90;45.74
70555;BME280;58104;52.744;15.242;2024-03-08T01:31:31;101694.54;;;16.91;45.29
70555;BME280;58104;52.744;15.242;2024-03-08T01:33:56;101694.21;;;16.90;45.19
70555;BME280;58104;52.744;15.242;2024-03-08T01:36:21;101692.56;;;16.83;44.71
70555;BME280;58104;52.744;15.242;2024-03-08T01:38:46;101689.14;;;16.81;45.75
70555;BME280;58104;52.744;15.242;2024-03-08T01:41:12;101687.99;;;16.84;45.22
70555;BME280;58104;52.744;15.242;2024-03-08T01:43:38;101688.10;;;16.82;45.31
70555;BME280;58104;52.744;15.242;2024-03-08T01:46:03;101686.44;;;16.76;45.13
70555;BME280;58104;52.744;15.242;2024-03-08T01:48:28;101680.94;;;16.78;45.57
70555;BME280;58104;52.744;15.242;2024-03-08T01:50:54;101680.95;;;16.83;46.06
70555;BME280;58104;52.744;15.242;2024-03-08T01:53:19;101681.38;;;16.87;44.69
70555;BME280;58104;52.744;15.242;2024-03-08T01:55:45;101680.24;;;16.82;44.93
70555;BME280;58104;52.744;15.242;2024-03-08T01:58:10;101679.57;;;16.76;45.67
70555;BME280;58104;52.744;15.242;2024-03-08T02:00:35;101679.66;;;16.82;45.41
70555;BME280;58104;52.744;15.242;2024-03-08T02:03:01;101675.44;;;16.79;45.40
70555;BME280;58104;52.744;15.242;2024-03-08T02:05:26;101672.84;;;16.85;44.99
70555;BME280;58104;52.744;15.242;2024-03-08T02:07:51;101674.04;;;16.78;44.20
70555;BME280;58104;52.744;15.242;2024-03-08T02:10:16;101673.36;;;16.78;45.53
70555;BME280;58104;52.744;15.242;2024-03-08T02:12:42;101674.43;;;16.80;45.18
70555;BME280;58104;52.744;15.242;2024-03-08T02:15:08;101672.51;;;16.84;45.00
70555;BME280;58104;52.744;15.242;2024-03-08T02:17:33;101667.25;;;16.78;44.81
70555;BME280;58104;52.744;15.242;2024-03-08T02:19:59;101665.47;;;16.72;45.55
70555;BME280;58104;52.744;15.242;2024-03-08T02:22:25;101664.08;;;16.73;45.86
70555;BME280;58104;52.744;15.242;2024-03-08T02:24:50;101664.75;;;16.67;45.08
70555;BME280;58104;52.744;15.242;2024-03-08T02:27:23;101658.08;;;16.75;44.85
70555;BME280;58104;52.744;15.242;2024-03-08T02:29:42;101655.97;;;16.78;45.55
70555;BME280;58104;52.744;15.242;2024-03-08T02:32:07;101656.22;;;16.78;45.18
70555;BME280;58104;52.744;15.242;2024-03-08T02:34:32;101654.32;;;16.67;46.10
70555;BME280;58104;52.744;15.242;2024-03-08T02:36:57;101651.47;;;16.76;45.54
70555;BME280;58104;52.744;15.242;2024-03-08T02:39:22;101647.13;;;16.67;44.47
70555;BME280;58104;52.744;15.242;2024-03-08T02:41:48;101646.70;;;16.70;45.15
70555;BME280;58104;52.744;15.242;2024-03-08T02:44:13;101646.90;;;16.78;45.53
70555;BME280;58104;52.744;15.242;2024-03-08T02:46:39;101644.10;;;16.72;46.09
70555;BME280;58104;52.744;15.242;2024-03-08T02:49:04;101643.14;;;16.69;44.67
70555;BME280;58104;52.744;15.242;2024-03-08T02:51:30;101644.51;;;16.74;45.49
70555;BME280;58104;52.744;15.242;2024-03-08T02:53:56;101643.51;;;16.67;44.96
70555;BME280;58104;52.744;15.242;2024-03-08T02:56:21;101636.90;;;16.65;44.64
70555;BME280;58104;52.744;15.242;2024-03-08T02:58:46;101638.73;;;16.64;44.22
70555;BME280;58104;52.744;15.242;2024-03-08T03:01:11;101641.01;;;16.59;45.01
70555;BME280;58104;52.744;15.242;2024-03-08T03:03:37;101643.76;;;16.64;45.37
70555;BME280;58104;52.744;15.242;2024-03-08T03:06:02;101642.61;;;16.64;43.67
70555;BME280;58104;52.744;15.242;2024-03-08T03:08:28;101638.45;;;16.56;44.53
70555;BME280;58104;52.744;15.242;2024-03-08T03:10:53;101637.96;;;16.64;44.57
70555;BME280;58104;52.744;15.242;2024-03-08T03:13:19;101639.37;;;16.63;44.22
70555;BME280;58104;52.744;15.242;2024-03-08T03:15:46;101638.50;;;16.60;43.99
70555;BME280;58104;52.744;15.242;2024-03-08T03:18:10;101637.37;;;16.63;43.63
70555;BME280;58104;52.744;15.242;2024-03-08T03:20:35;101640.06;;;16.61;45.11
70555;BME280;58104;52.744;15.242;2024-03-08T03:23:01;101641.98;;;16.61;45.41
70555;BME280;58104;52.744;15.242;2024-03-08T03:25:27;101640.54;;;16.58;44.72
70555;BME280;58104;52.744;15.242;2024-03-08T03:27:52;101641.46;;;16.57;45.10
70555;BME280;58104;52.744;15.242;2024-03-08T03:30:17;101637.53;;;16.53;43.86
70555;BME280;58104;52.744;15.242;2024-03-08T03:32:43;101635.39;;;16.57;46.26
70555;BME280;58104;52.744;15.242;2024-03-08T03:35:08;101636.66;;;16.55;45.20
70555;BME280;58104;52.744;15.242;2024-03-08T03:37:34;101636.51;;;16.62;45.19
70555;BME280;58104;52.744;15.242;2024-03-08T03:40:00;101638.24;;;16.59;45.86
70555;BME280;58104;52.744;15.242;2024-03-08T03:42:25;101635.71;;;16.50;45.36
70555;BME280;58104;52.744;15.242;2024-03-08T03:44:50;101637.13;;;16.50;44.21
70555;BME280;58104;52.744;15.242;2024-03-08T03:47:16;101640.62;;;16.51;44.20
70555;BME280;58104;52.744;15.242;2024-03-08T03:49:41;101642.30;;;16.44;45.29
70555;BME280;58104;52.744;15.242;2024-03-08T03:52:06;101641.31;;;16.46;44.45
70555;BME280;58104;52.744;15.242;2024-03-08T03:54:32;101638.83;;;16.43;45.30
70555;BME280;58104;52.744;15.242;2024-03-08T03:56:58;101637.41;;;16.44;45.84
70555;BME280;58104;52.744;15.242;2024-03-08T03:59:23;101640.63;;;16.49;46.58
70555;BME280;58104;52.744;15.242;2024-03-08T04:01:48;101640.52;;;16.50;45.77
70555;BME280;58104;52.744;15.242;2024-03-08T04:04:14;101637.54;;;16.54;44.51
70555;BME280;58104;52.744;15.242;2024-03-08T04:06:39;101635.32;;;16.45;45.23
70555;BME280;58104;52.744;15.242;2024-03-08T04:09:05;101629.89;;;16.40;45.94
70555;BME280;58104;52.744;15.242;2024-03-08T04:11:30;101628.36;;;16.44;46.22
70555;BME280;58104;52.744;15.242;2024-03-08T04:13:55;101628.16;;;16.44;45.79
70555;BME280;58104;52.744;15.242;2024-03-08T04:16:21;101625.40;;;16.46;45.69
70555;BME280;58104;52.744;15.242;2024-03-08T04:18:46;101623.55;;;16.41;45.59
70555;BME280;58104;52.744;15.242;2024-03-08T04:21:12;101627.17;;;16.42;44.52
70555;BME280;58104;52.744;15.242;2024-03-08T04:23:38;101627.05;;;16.47;45.96
70555;BME280;58104;52.744;15.242;2024-03-08T04:26:04;101628.15;;;16.46;45.30
70555;BME280;58104;52.744;15.242;2024-03-08T04:28:28;101628.99;;;16.39;44.56
70555;BME280;58104;52.744;15.242;2024-03-08T04:30:54;101629.48;;;16.36;44.76
70555;BME280;58104;52.744;15.242;2024-03-08T04:33:19;101625.14;;;16.45;44.83
70555;BME280;58104;52.744;15.242;2024-03-08T04:35:46;101625.85;;;16.40;45.01
70555;BME280;58104;52.744;15.242;2024-03-08T04:38:10;101626.86;;;16.47;46.04
70555;BME280;58104;52.744;15.242;2024-03-08T04:40:35;101629.24;;;16.44;46.33
70555;BME280;58104;52.744;15.242;2024-03-08T04:43:01;101624.66;;;16.39;44.26
70555;BME280;58104;52.744;15.242;2024-03-08T04:45:26;101621.36;;;16.43;46.28
70555;BME280;58104;52.744;15.242;2024-03-08T04:47:52;101622.52;;;16.40;45.86
70555;BME280;58104;52.744;15.242;2024-03-08T04:50:18;101621.73;;;16.39;45.31
70555;BME280;58104;52.744;15.242;2024-03-08T04:52:43;101622.50;;;16.37;44.90
70555;BME280;58104;52.744;15.242;2024-03-08T04:55:08;101621.96;;;16.36;45.33
70555;BME280;58104;52.744;15.242;2024-03-08T04:57:34;101621.26;;;16.33;45.70
70555;BME280;58104;52.744;15.242;2024-03-08T04:59:59;101621.62;;;16.40;45.67
70555;BME280;58104;52.744;15.242;2024-03-08T05:02:25;101621.49;;;16.34;45.33
70555;BME280;58104;52.744;15.242;2024-03-08T05:04:50;101621.61;;;16.35;45.73
70555;BME280;58104;52.744;15.242;2024-03-08T05:07:16;101623.22;;;16.39;45.51
70555;BME280;58104;52.744;15.242;2024-03-08T05:09:42;101620.63;;;16.30;45.06
70555;BME280;58104;52.744;15.242;2024-03-08T05:12:08;101620.79;;;16.26;45.09
70555;BME280;58104;52.744;15.242;2024-03-08T05:14:33;101620.38;;;16.29;46.04
70555;BME280;58104;52.744;15.242;2024-03-08T05:16:59;101618.95;;;16.32;46.01
70555;BME280;58104;52.744;15.242;2024-03-08T05:19:25;101618.18;;;16.32;45.44
70555;BME280;58104;52.744;15.242;2024-03-08T05:21:50;101615.33;;;16.34;46.22
70555;BME280;58104;52.744;15.242;2024-03-08T05:24:17;101611.74;;;16.36;46.36
70555;BME280;58104;52.744;15.242;2024-03-08T05:26:42;101617.18;;;16.32;46.77
70555;BME280;58104;52.744;15.242;2024-03-08T05:29:07;101616.89;;;16.28;45.19
70555;BME280;58104;52.744;15.242;2024-03-08T05:31:38;101617.39;;;16.37;46.04
70555;BME280;58104;52.744;15.242;2024-03-08T05:33:58;101613.47;;;16.28;47.20
70555;BME280;58104;52.744;15.242;2024-03-08T05:36:23;101611.37;;;16.36;46.22
70555;BME280;58104;52.744;15.242;2024-03-08T05:38:49;101605.97;;;16.30;44.36
70555;BME280;58104;52.744;15.242;2024-03-08T05:41:15;101608.54;;;16.28;45.93
70555;BME280;58104;52.744;15.242;2024-03-08T05:43:41;101607.11;;;16.32;46.74
70555;BME280;58104;52.744;15.242;2024-03-08T05:46:06;101605.88;;;16.35;45.48
70555;BME280;58104;52.744;15.242;2024-03-08T05:48:31;101609.41;;;16.37;46.73
70555;BME280;58104;52.744;15.242;2024-03-08T05:50:57;101608.60;;;16.52;46.02
70555;BME280;58104;52.744;15.242;2024-03-08T05:53:22;101604.46;;;16.53;45.95
70555;BME280;58104;52.744;15.242;2024-03-08T05:55:48;101603.70;;;16.59;44.68
70555;BME280;58104;52.744;15.242;2024-03-08T05:58:13;101605.85;;;16.75;43.74
70555;BME280;58104;52.744;15.242;2024-03-08T06:00:39;101607.08;;;16.81;44.38
70555;BME280;58104;52.744;15.242;2024-03-08T06:03:05;101607.46;;;16.89;43.56
70555;BME280;58104;52.744;15.242;2024-03-08T06:05:30;101608.52;;;16.88;43.54
70555;BME280;58104;52.744;15.242;2024-03-08T06:07:56;101608.95;;;16.87;42.83
70555;BME280;58104;52.744;15.242;2024-03-08T06:10:21;101610.40;;;17.05;42.67
70555;BME280;58104;52.744;15.242;2024-03-08T06:12:46;101613.27;;;16.99;42.08
70555;BME280;58104;52.744;15.242;2024-03-08T06:15:12;101611.73;;;17.04;41.93
70555;BME280;58104;52.744;15.242;2024-03-08T06:17:37;101612.14;;;17.05;41.08
70555;BME280;58104;52.744;15.242;2024-03-08T06:20:03;101612.76;;;17.08;40.46
70555;BME280;58104;52.744;15.242;2024-03-08T06:22:27;101613.61;;;17.12;40.33
70555;BME280;58104;52.744;15.242;2024-03-08T06:24:53;101612.26;;;17.21;40.34
70555;BME280;58104;52.744;15.242;2024-03-08T06:27:18;101612.80;;;17.23;40.06
70555;BME280;58104;52.744;15.242;2024-03-08T06:29:44;101614.46;;;17.23;39.46
70555;BME280;58104;52.744;15.242;2024-03-08T06:32:10;101616.35;;;17.23;39.35
70555;BME280;58104;52.744;15.242;2024-03-08T06:34:35;101615.07;;;17.27;39.62
70555;BME280;58104;52.744;15.242;2024-03-08T06:37:00;101614.66;;;17.25;38.18
70555;BME280;58104;52.744;15.242;2024-03-08T06:39:25;101615.10;;;17.40;38.44
70555;BME280;58104;52.744;15.242;2024-03-08T06:41:51;101615.60;;;17.37;38.44
70555;BME280;58104;52.744;15.242;2024-03-08T06:44:16;101615.26;;;17.51;38.27
70555;BME280;58104;52.744;15.242;2024-03-08T06:46:42;101613.89;;;17.57;38.04
70555;BME280;58104;52.744;15.242;2024-03-08T06:49:08;101613.35;;;17.66;37.58
70555;BME280;58104;52.744;15.242;2024-03-08T06:51:33;101617.66;;;17.66;36.23
70555;BME280;58104;52.744;15.242;2024-03-08T06:53:58;101619.23;;;17.77;39.94
70555;BME280;58104;52.744;15.242;2024-03-08T06:56:23;101621.24;;;17.79;39.57
70555;BME280;58104;52.744;15.242;2024-03-08T06:58:49;101620.96;;;18.00;40.46
70555;BME280;58104;52.744;15.242;2024-03-08T07:01:14;101621.32;;;18.01;40.23
70555;BME280;58104;52.744;15.242;2024-03-08T07:03:41;101625.48;;;18.16;38.62
70555;BME280;58104;52.744;15.242;2024-03-08T07:06:05;101624.98;;;18.11;37.02
70555;BME280;58104;52.744;15.242;2024-03-08T07:08:31;101630.87;;;18.18;37.39
70555;BME280;58104;52.744;15.242;2024-03-08T07:10:56;101633.78;;;18.25;37.25
70555;BME280;58104;52.744;15.242;2024-03-08T07:13:21;101630.67;;;18.27;37.16
70555;BME280;58104;52.744;15.242;2024-03-08T07:15:47;101628.49;;;18.31;36.61
70555;BME280;58104;52.744;15.242;2024-03-08T07:18:12;101630.12;;;18.30;37.82
70555;BME280;58104;52.744;15.242;2024-03-08T07:20:38;101626.70;;;18.37;37.37
70555;BME280;58104;52.744;15.242;2024-03-08T07:23:03;101623.07;;;18.40;37.59
70555;BME280;58104;52.744;15.242;2024-03-08T07:25:28;101624.76;;;18.48;37.86
70555;BME280;58104;52.744;15.242;2024-03-08T07:27:55;101625.08;;;18.56;37.96
70555;BME280;58104;52.744;15.242;2024-03-08T07:30:28;101623.92;;;18.51;38.01
70555;BME280;58104;52.744;15.242;2024-03-08T07:32:53;101626.55;;;18.76;37.09
70555;BME280;58104;52.744;15.242;2024-03-08T07:35:18;101625.88;;;18.86;37.07
70555;BME280;58104;52.744;15.242;2024-03-08T07:37:44;101625.69;;;18.96;37.10
70555;BME280;58104;52.744;15.242;2024-03-08T07:40:10;101620.39;;;19.00;36.43
70555;BME280;58104;52.744;15.242;2024-03-08T07:42:35;101617.25;;;19.13;37.00
70555;BME280;58104;52.744;15.242;2024-03-08T07:45:01;101611.22;;;19.26;35.85
70555;BME280;58104;52.744;15.242;2024-03-08T07:47:26;101611.22;;;19.19;35.54
70555;BME280;58104;52.744;15.242;2024-03-08T07:49:51;101608.09;;;19.30;36.33
70555;BME280;58104;52.744;15.242;2024-03-08T07:52:17;101607.98;;;19.37;35.52
70555;BME280;58104;52.744;15.242;2024-03-08T07:54:42;101606.15;;;19.36;35.10
70555;BME280;58104;52.744;15.242;2024-03-08T07:57:08;101608.61;;;19.50;35.87
70555;BME280;58104;52.744;15.242;2024-03-08T07:59:33;101603.67;;;19.57;35.41
70555;BME280;58104;52.744;15.242;2024-03-08T08:01:58;101602.56;;;19.70;34.30
70555;BME280;58104;52.744;15.242;2024-03-08T08:04:24;101600.42;;;19.80;33.82
70555;BME280;58104;52.744;15.242;2024-03-08T08:06:49;101600.67;;;19.86;33.62
70555;BME280;58104;52.744;15.242;2024-03-08T08:09:14;101595.45;;;19.97;33.38
70555;BME280;58104;52.744;15.242;2024-03-08T08:11:40;101594.08;;;20.06;33.58
70555;BME280;58104;52.744;15.242;2024-03-08T08:14:05;101595.85;;;20.16;33.43
70555;BME280;58104;52.744;15.242;2024-03-08T08:16:30;101593.21;;;20.27;33.56
70555;BME280;58104;52.744;15.242;2024-03-08T08:18:56;101592.41;;;20.31;32.34
70555;BME280;58104;52.744;15.242;2024-03-08T08:21:22;101593.92;;;20.35;32.81
70555;BME280;58104;52.744;15.242;2024-03-08T08:23:48;101591.27;;;20.48;32.87
70555;BME280;58104;52.744;15.242;2024-03-08T08:26:13;101588.80;;;20.60;32.59
70555;BME280;58104;52.744;15.242;2024-03-08T08:28:38;101591.44;;;20.70;31.76
70555;BME280;58104;52.744;15.242;2024-03-08T08:31:04;101589.98;;;20.86;31.91
70555;BME280;58104;52.744;15.242;2024-03-08T08:33:29;101587.10;;;20.91;32.91
70555;BME280;58104;52.744;15.242;2024-03-08T08:35:55;101586.88;;;21.04;31.12
70555;BME280;58104;52.744;15.242;2024-03-08T08:38:20;101588.14;;;21.17;31.71
70555;BME280;58104;52.744;15.242;2024-03-08T08:40:46;101583.52;;;21.29;31.13
70555;BME280;58104;52.744;15.242;2024-03-08T08:43:11;101581.57;;;21.39;30.89
70555;BME280;58104;52.744;15.242;2024-03-08T08:45:37;101584.45;;;21.56;30.53
70555;BME280;58104;52.744;15.242;2024-03-08T08:48:02;101583.96;;;21.72;30.43
70555;BME280;58104;52.744;15.242;2024-03-08T08:50:28;101584.70;;;21.84;30.45
70555;BME280;58104;52.744;15.242;2024-03-08T08:52:54;101582.58;;;21.89;29.26
70555;BME280;58104;52.744;15.242;2024-03-08T08:55:19;101581.79;;;22.01;29.83
70555;BME280;58104;52.744;15.242;2024-03-08T08:57:44;101580.18;;;22.18;29.46
70555;BME280;58104;52.744;15.242;2024-03-08T09:00:11;101578.11;;;22.41;29.13
70555;BME280;58104;52.744;15.242;2024-03-08T09:02:35;101573.53;;;22.57;28.93
70555;BME280;58104;52.744;15.242;2024-03-08T09:05:01;101570.35;;;22.56;29.12
70555;BME280;58104;52.744;15.242;2024-03-08T09:07:27;101569.33;;;22.73;29.26
70555;BME280;58104;52.744;15.242;2024-03-08T09:09:52;101568.76;;;22.83;28.42
70555;BME280;58104;52.744;15.242;2024-03-08T09:12:17;101569.58;;;22.92;28.78
70555;BME280;58104;52.744;15.242;2024-03-08T09:14:42;101569.44;;;23.02;28.61
70555;BME280;58104;52.744;15.242;2024-03-08T09:17:08;101564.03;;;23.14;29.08
70555;BME280;58104;52.744;15.242;2024-03-08T09:19:33;101560.11;;;23.31;28.62
70555;BME280;58104;52.744;15.242;2024-03-08T09:21:59;101557.31;;;23.57;28.15
70555;BME280;58104;52.744;15.242;2024-03-08T09:24:24;101556.21;;;23.77;28.35
70555;BME280;58104;52.744;15.242;2024-03-08T09:26:49;101554.73;;;24.03;29.01
70555;BME280;58104;52.744;15.242;2024-03-08T09:29:15;101554.63;;;24.31;27.61
70555;BME280;58104;52.744;15.242;2024-03-08T09:31:40;101554.80;;;24.45;28.31
70555;BME280;58104;52.744;15.242;2024-03-08T09:34:06;101551.98;;;24.70;27.57
70555;BME280;58104;52.744;15.242;2024-03-08T09:36:31;101550.89;;;24.96;25.84
70555;BME280;58104;52.744;15.242;2024-03-08T09:38:57;101549.41;;;25.07;26.77
70555;BME280;58104;52.744;15.242;2024-03-08T09:41:22;101547.56;;;25.25;26.86
70555;BME280;58104;52.744;15.242;2024-03-08T09:43:47;101538.33;;;25.53;26.72
70555;BME280;58104;52.744;15.242;2024-03-08T09:46:14;101536.92;;;25.97;24.61
70555;BME280;58104;52.744;15.242;2024-03-08T09:48:39;101534.74;;;26.15;25.90
70555;BME280;58104;52.744;15.242;2024-03-08T09:51:04;101533.80;;;26.46;24.27
70555;BME280;58104;52.744;15.242;2024-03-08T09:53:29;101533.29;;;26.80;24.65
70555;BME280;58104;52.744;15.242;2024-03-08T09:55:55;101529.71;;;27.19;23.61
70555;BME280;58104;52.744;15.242;2024-03-08T09:58:21;101527.46;;;27.34;24.94
70555;BME280;58104;52.744;15.242;2024-03-08T10:00:46;101520.94;;;27.72;23.77
70555;BME280;58104;52.744;15.242;2024-03-08T10:03:11;101513.52;;;27.98;23.94
70555;BME280;58104;52.744;15.242;2024-03-08T10:05:37;101511.97;;;28.32;23.30
70555;BME280;58104;52.744;15.242;2024-03-08T10:08:03;101507.10;;;28.76;22.87
70555;BME280;58104;52.744;15.242;2024-03-08T10:10:28;101505.59;;;29.15;22.70
70555;BME280;58104;52.744;15.242;2024-03-08T10:12:55;101501.31;;;29.75;22.19
70555;BME280;58104;52.744;15.242;2024-03-08T10:15:20;101498.54;;;29.96;21.93
70555;BME280;58104;52.744;15.242;2024-03-08T10:17:45;101502.94;;;30.77;21.02
70555;BME280;58104;52.744;15.242;2024-03-08T10:20:14;101498.95;;;31.10;20.68
70555;BME280;58104;52.744;15.242;2024-03-08T10:22:37;101496.37;;;31.21;20.86
70555;BME280;58104;52.744;15.242;2024-03-08T10:25:03;101497.01;;;31.34;20.85
70555;BME280;58104;52.744;15.242;2024-03-08T10:27:28;101494.60;;;31.49;20.29
70555;BME280;58104;52.744;15.242;2024-03-08T10:29:53;101495.42;;;31.48;20.54
70555;BME280;58104;52.744;15.242;2024-03-08T10:32:18;101492.23;;;31.43;20.77
70555;BME280;58104;52.744;15.242;2024-03-08T10:34:43;101490.61;;;31.48;20.74
70555;BME280;58104;52.744;15.242;2024-03-08T10:37:14;101489.89;;;31.64;20.42
70555;BME280;58104;52.744;15.242;2024-03-08T10:39:35;101487.51;;;31.56;20.64
70555;BME280;58104;52.744;15.242;2024-03-08T10:42:02;101489.08;;;31.61;20.29
70555;BME280;58104;52.744;15.242;2024-03-08T10:44:43;101481.57;;;31.55;20.64
70555;BME280;58104;52.744;15.242;2024-03-08T10:47:00;101482.78;;;31.48;20.61
70555;BME280;58104;52.744;15.242;2024-03-08T10:49:17;101482.42;;;31.52;20.63
70555;BME280;58104;52.744;15.242;2024-03-08T10:51:40;101483.38;;;31.54;20.62
70555;BME280;58104;52.744;15.242;2024-03-08T10:54:06;101480.54;;;31.67;20.57
70555;BME280;58104;52.744;15.242;2024-03-08T10:56:31;101470.40;;;31.69;20.51
70555;BME280;58104;52.744;15.242;2024-03-08T10:58:57;101469.57;;;31.75;20.47
70555;BME280;58104;52.744;15.242;2024-03-08T11:01:23;101471.16;;;31.68;20.55
70555;BME280;58104;52.744;15.242;2024-03-08T11:03:49;101461.08;;;31.85;20.42
70555;BME280;58104;52.744;15.242;2024-03-08T11:06:16;101459.45;;;31.93;20.35
70555;BME280;58104;52.744;15.242;2024-03-08T11:08:39;101457.16;;;31.99;20.04
70555;BME280;58104;52.744;15.242;2024-03-08T11:11:05;101462.60;;;31.90;20.30
70555;BME280;58104;52.744;15.242;2024-03-08T11:13:34;101453.16;;;31.85;20.41
70555;BME280;58104;52.744;15.242;2024-03-08T11:15:56;101453.10;;;31.91;20.33
70555;BME280;58104;52.744;15.242;2024-03-08T11:18:22;101445.90;;;31.88;20.33
70555;BME280;58104;52.744;15.242;2024-03-08T11:20:48;101441.99;;;31.92;20.33
70555;BME280;58104;52.744;15.242;2024-03-08T11:23:13;101443.02;;;32.22;20.08
70555;BME280;58104;52.744;15.242;2024-03-08T11:25:39;101439.12;;;32.02;20.18
70555;BME280;58104;52.744;15.242;2024-03-08T11:28:12;101435.48;;;32.14;20.13
70555;BME280;58104;52.744;15.242;2024-03-08T11:30:29;101430.86;;;31.98;20.25
70555;BME280;58104;52.744;15.242;2024-03-08T11:33:00;101425.36;;;32.30;20.03
70555;BME280;58104;52.744;15.242;2024-03-08T11:35:21;101423.39;;;32.07;20.27
70555;BME280;58104;52.744;15.242;2024-03-08T11:37:45;101422.45;;;32.06;20.23
70555;BME280;58104;52.744;15.242;2024-03-08T11:40:12;101422.35;;;31.65;20.66
70555;BME280;58104;52.744;15.242;2024-03-08T11:42:36;101416.97;;;31.95;20.42
70555;BME280;58104;52.744;15.242;2024-03-08T11:45:08;101411.32;;;31.85;20.52
70555;BME280;58104;52.744;15.242;2024-03-08T11:47:27;101410.61;;;31.77;20.60
70555;BME280;58104;52.744;15.242;2024-03-08T11:49:52;101405.86;;;31.53;20.74
70555;BME280;58104;52.744;15.242;2024-03-08T11:52:18;101402.70;;;31.75;20.60
70555;BME280;58104;52.744;15.242;2024-03-08T11:54:51;101396.13;;;31.49;20.80
70555;BME280;58104;52.744;15.242;2024-03-08T11:57:09;101399.03;;;31.56;20.72
70555;BME280;58104;52.744;15.242;2024-03-08T11:59:34;101397.56;;;31.56;20.74
70555;BME280;58104;52.744;15.242;2024-03-08T12:02:01;101391.03;;;31.42;20.91
70555;BME280;58104;52.744;15.242;2024-03-08T12:04:24;101388.95;;;31.13;21.18
70555;BME280;58104;52.744;15.242;2024-03-08T12:06:49;101386.88;;;31.12;21.19
70555;BME280;58104;52.744;15.242;2024-03-08T12:09:16;101390.64;;;30.93;21.41
70555;BME280;58104;52.744;15.242;2024-03-08T12:11:40;101388.23;;;31.08;21.26
70555;BME280;58104;52.744;15.242;2024-03-08T12:14:05;101384.56;;;31.00;21.29
70555;BME280;58104;52.744;15.242;2024-03-08T12:16:30;101381.47;;;31.02;21.26
70555;BME280;58104;52.744;15.242;2024-03-08T12:18:55;101375.31;;;31.01;21.40
70555;BME280;58104;52.744;15.242;2024-03-08T12:21:20;101371.78;;;30.93;21.46
70555;BME280;58104;52.744;15.242;2024-03-08T12:23:46;101370.53;;;30.90;21.43
70555;BME280;58104;52.744;15.242;2024-03-08T12:26:12;101370.70;;;30.81;21.48
70555;BME280;58104;52.744;15.242;2024-03-08T12:28:36;101363.44;;;30.92;21.45
70555;BME280;58104;52.744;15.242;2024-03-08T12:31:02;101358.95;;;30.85;21.56